Time;durP1;ratioP1;P1;durP2;ratioP2;P2;SDS_P1;SDS_P2;PMS_P1;PMS_P2;Temp;Humidity;BMP_temperature;BMP_pressure;BME280_temperature;BME280_humidity;BME280_pressure;Samples;Min_cycle;Max_cycle;Signal;HPM_P1;HPM_P2
2021/04/02 00:00:49;;;;;;;21.20;10.40;;;7.50;97.30;;;;;;5015554;28;20491;-91
2021/04/02 00:03:20;;;;;;;19.17;10.33;;;7.50;97.30;;;;;;5016551;28;20420;-89
2021/04/02 00:05:47;;;;;;;22.33;12.17;;;7.50;97.30;;;;;;5018029;28;20443;-90
2021/04/02 00:08:13;;;;;;;21.20;10.90;;;7.40;97.30;;;;;;5017745;28;20417;-90
2021/04/02 00:11:00;;;;;;;28.20;13.67;;;7.40;97.30;;;;;;5023111;28;20428;-89
2021/04/02 00:13:31;;;;;;;28.27;13.53;;;7.40;97.30;;;;;;5014996;28;20201;-90
2021/04/02 00:15:57;;;;;;;25.57;12.67;;;7.40;97.30;;;;;;5016958;28;20814;-89
2021/04/02 00:18:24;;;;;;;28.13;12.77;;;7.40;97.30;;;;;;5017510;28;20431;-90
2021/04/02 00:20:51;;;;;;;19.73;9.73;;;7.40;97.30;;;;;;5014785;28;20421;-90
2021/04/02 00:23:18;;;;;;;21.20;11.40;;;7.40;97.30;;;;;;5016078;28;20488;-91
2021/04/02 00:25:44;;;;;;;19.50;11.00;;;7.30;97.30;;;;;;5015827;28;20491;-91
2021/04/02 00:28:10;;;;;;;21.50;10.80;;;7.30;97.30;;;;;;5016986;28;20857;-90
2021/04/02 00:31:13;;;;;;;21.90;11.23;;;7.30;97.30;;;;;;5016355;28;20463;-91
2021/04/02 00:34:32;;;;;;;24.57;11.90;;;7.30;97.30;;;;;;5004228;28;20236;-90
2021/04/02 00:43:52;;;;;;;23.70;12.73;;;7.30;97.30;;;;;;4974870;28;20797;-93
2021/04/02 00:46:23;;;;;;;24.63;12.07;;;7.30;97.30;;;;;;4957940;28;20885;-90
2021/04/02 00:48:49;;;;;;;21.20;11.00;;;7.30;97.30;;;;;;5013915;28;20431;-91
2021/04/02 00:51:28;;;;;;;24.53;11.23;;;7.20;97.30;;;;;;5016319;28;20400;-91
2021/04/02 00:53:55;;;;;;;31.20;11.77;;;7.20;97.30;;;;;;5013935;28;20999;-91
2021/04/02 00:56:21;;;;;;;26.17;13.07;;;7.20;97.30;;;;;;5014331;28;20775;-91
2021/04/02 00:58:47;;;;;;;27.83;12.67;;;7.20;97.30;;;;;;5014423;28;20420;-90
2021/04/02 01:01:14;;;;;;;26.60;13.70;;;7.10;97.30;;;;;;5016066;28;20427;-91
2021/04/02 01:03:41;;;;;;;31.47;14.73;;;7.20;97.30;;;;;;4995727;28;20802;-91
2021/04/02 01:06:13;;;;;;;31.33;14.20;;;7.10;97.30;;;;;;5007394;28;20447;-91
2021/04/02 01:08:39;;;;;;;27.47;13.33;;;7.10;97.30;;;;;;5015718;28;20419;-91
2021/04/02 01:11:09;;;;;;;35.77;14.23;;;7.10;97.30;;;;;;5016424;28;20432;-90
2021/04/02 01:13:40;;;;;;;28.50;13.27;;;7.10;97.30;;;;;;5016099;28;20208;-91
2021/04/02 01:16:33;;;;;;;31.50;14.70;;;7.10;97.30;;;;;;5013265;28;20441;-91
2021/04/02 01:19:16;;;;;;;31.10;13.33;;;7.10;97.30;;;;;;5013219;28;20416;-90
2021/04/02 01:21:55;;;;;;;33.00;13.70;;;7.10;97.30;;;;;;5016095;28;20440;-91
2021/04/02 01:24:21;;;;;;;27.93;12.50;;;7.10;97.30;;;;;;5015891;28;20420;-90
2021/04/02 01:27:08;;;;;;;27.07;13.10;;;7.10;97.30;;;;;;5016006;28;20487;-91
2021/04/02 01:29:42;;;;;;;31.30;13.07;;;7.10;97.30;;;;;;5018776;28;20177;-91
2021/04/02 01:32:12;;;;;;;29.67;13.10;;;7.10;97.30;;;;;;5022397;28;20450;-91
2021/04/02 01:34:52;;;;;;;;;;;;;;;;;;;;;
2021/04/02 01:37:38;;;;;;;23.07;10.57;;;7.10;97.30;;;;;;5013256;28;20434;-91
2021/04/02 01:40:14;;;;;;;16.00;8.00;;;7.00;97.30;;;;;;5012985;28;20408;-91
2021/04/02 01:48:51;;;;;;;15.40;8.00;;;6.80;97.30;;;;;;5067689;28;20486;-89
2021/04/02 01:51:17;;;;;;;15.30;8.40;;;6.70;97.30;;;;;;5056689;28;20432;-90
2021/04/02 01:53:46;;;;;;;18.07;8.50;;;6.70;97.30;;;;;;5056625;28;20456;-89
2021/04/02 01:56:13;;;;;;;18.30;8.33;;;6.70;97.30;;;;;;5056480;28;20488;-89
2021/04/02 01:58:42;;;;;;;16.50;8.23;;;6.70;97.30;;;;;;5057237;28;20417;-88
2021/04/02 02:01:13;;;;;;;16.97;8.23;;;6.70;97.30;;;;;;5092625;23;20414;-82
2021/04/02 02:03:40;;;;;;;18.23;8.27;;;6.70;97.30;;;;;;5055825;28;20448;-82
2021/04/02 02:06:10;;;;;;;17.43;8.03;;;6.70;97.30;;;;;;5057491;28;20409;-83
2021/04/02 02:08:36;;;;;;;14.03;6.80;;;6.70;97.30;;;;;;5075499;28;20488;-82
2021/04/02 02:11:05;;;;;;;11.23;6.20;;;6.70;97.30;;;;;;5057008;28;20773;-82
2021/04/02 02:13:31;;;;;;;8.53;5.00;;;6.60;97.30;;;;;;5037470;28;20450;-82
2021/04/02 02:15:58;;;;;;;9.57;5.50;;;6.50;97.30;;;;;;5037599;28;20464;-82
2021/04/02 02:18:26;;;;;;;8.20;4.80;;;6.50;97.30;;;;;;5037637;28;20415;-82
2021/04/02 02:20:52;;;;;;;7.93;4.87;;;6.40;97.30;;;;;;5037635;28;20465;-82
2021/04/02 02:23:18;;;;;;;6.73;4.60;;;6.40;97.30;;;;;;5037819;28;20472;-82
2021/04/02 02:25:44;;;;;;;7.90;4.87;;;6.40;97.30;;;;;;5037913;28;20422;-82
2021/04/02 02:28:10;;;;;;;7.30;4.30;;;6.40;97.30;;;;;;5038178;28;20529;-82
2021/04/02 02:30:37;;;;;;;6.60;4.53;;;6.30;97.30;;;;;;5037846;28;20419;-82
2021/04/02 02:33:03;;;;;;;6.70;4.63;;;6.30;97.30;;;;;;5037859;28;20533;-82
2021/04/02 02:35:29;;;;;;;6.00;4.37;;;6.30;97.30;;;;;;5036719;28;20786;-82
2021/04/02 02:37:57;;;;;;;8.73;4.70;;;6.30;97.30;;;;;;5037519;28;20509;-82
2021/04/02 02:40:27;;;;;;;5.40;4.30;;;6.30;97.30;;;;;;5037152;28;20260;-82
2021/04/02 02:42:55;;;;;;;4.20;3.53;;;6.30;97.30;;;;;;5037371;28;20483;-82
2021/04/02 02:45:21;;;;;;;4.97;3.63;;;6.30;97.30;;;;;;5036461;28;20449;-82
2021/04/02 02:47:48;;;;;;;5.77;4.10;;;6.20;97.30;;;;;;5037200;28;20450;-82
2021/04/02 02:50:18;;;;;;;7.47;4.40;;;6.20;97.30;;;;;;5054539;28;20425;-82
2021/04/02 02:52:47;;;;;;;6.17;4.00;;;6.20;97.30;;;;;;5037300;28;20457;-82
2021/04/02 02:55:14;;;;;;;10.50;4.27;;;6.20;97.30;;;;;;5054946;28;21061;-82
2021/04/02 02:57:44;;;;;;;5.53;3.80;;;6.20;97.30;;;;;;5056041;28;20438;-83
2021/04/02 03:00:17;;;;;;;5.07;3.80;;;6.10;97.30;;;;;;5038370;28;20450;-82
2021/04/02 03:02:46;;;;;;;7.03;3.90;;;6.10;97.30;;;;;;5041134;28;20469;-82
2021/04/02 03:05:15;;;;;;;5.77;3.93;;;6.10;97.30;;;;;;5041245;28;20453;-82
2021/04/02 03:07:43;;;;;;;6.33;4.30;;;6.10;97.30;;;;;;5040855;28;20519;-82
2021/04/02 03:10:11;;;;;;;6.93;4.03;;;6.10;97.30;;;;;;5041862;28;20437;-82
2021/04/02 03:12:40;;;;;;;5.60;3.93;;;6.10;97.30;;;;;;5040528;28;21186;-82
2021/04/02 03:15:08;;;;;;;8.13;4.80;;;6.00;97.30;;;;;;5040957;28;20422;-82
2021/04/02 03:17:36;;;;;;;8.13;4.63;;;6.00;97.30;;;;;;5059949;28;20430;-81
2021/04/02 03:20:05;;;;;;;7.70;4.80;;;6.00;97.30;;;;;;5041706;28;20976;-82
2021/04/02 03:22:32;;;;;;;7.17;4.60;;;6.00;97.30;;;;;;5042234;28;20790;-82
2021/04/02 03:25:08;;;;;;;8.00;4.23;;;6.00;97.30;;;;;;5041631;28;20500;-82
2021/04/02 03:27:36;;;;;;;7.00;4.30;;;5.90;97.30;;;;;;5042519;28;20433;-82
2021/04/02 03:30:03;;;;;;;8.13;4.47;;;5.90;97.30;;;;;;5059611;28;20425;-82
2021/04/02 03:32:30;;;;;;;7.70;4.30;;;5.90;97.30;;;;;;5041065;28;20438;-82
2021/04/02 03:34:57;;;;;;;6.33;4.30;;;5.90;97.30;;;;;;5042264;28;20497;-82
2021/04/02 03:37:23;;;;;;;6.97;4.97;;;5.80;97.30;;;;;;5060033;28;20445;-82
2021/04/02 03:39:53;;;;;;;7.13;4.30;;;5.80;97.30;;;;;;5059303;28;20444;-82
2021/04/02 03:42:20;;;;;;;6.63;4.33;;;5.80;97.30;;;;;;5041351;28;20465;-82
2021/04/02 03:44:47;;;;;;;7.47;4.60;;;5.80;97.30;;;;;;5041507;28;20413;-82
2021/04/02 03:47:16;;;;;;;7.53;3.97;;;5.80;97.30;;;;;;5041555;28;20433;-82
2021/04/02 03:49:44;;;;;;;7.53;4.87;;;5.80;97.30;;;;;;5041915;28;20450;-82
2021/04/02 03:52:25;;;;;;;6.83;4.90;;;5.70;97.30;;;;;;5041913;28;20430;-82
2021/04/02 03:54:51;;;;;;;6.70;4.77;;;5.80;97.30;;;;;;5059521;28;20402;-82
2021/04/02 03:57:19;;;;;;;6.83;4.90;;;5.80;97.30;;;;;;5041531;28;20866;-82
2021/04/02 03:59:47;;;;;;;6.23;4.23;;;5.80;97.30;;;;;;5041636;28;20407;-83
2021/04/02 04:02:13;;;;;;;5.63;3.90;;;5.90;97.30;;;;;;5059815;28;20472;-82
2021/04/02 04:04:40;;;;;;;6.90;5.00;;;5.90;97.30;;;;;;5062444;28;20414;-82
2021/04/02 04:07:08;;;;;;;5.43;4.30;;;5.90;97.30;;;;;;5062259;28;20693;-83
2021/04/02 04:09:35;;;;;;;8.27;4.50;;;5.90;97.30;;;;;;5050546;28;20821;-82
2021/04/02 04:12:02;;;;;;;5.70;4.20;;;5.90;97.30;;;;;;5038185;28;20976;-82
2021/04/02 04:14:30;;;;;;;6.20;4.67;;;5.90;97.30;;;;;;5039525;28;20469;-82
2021/04/02 04:16:59;;;;;;;8.60;4.70;;;5.90;97.30;;;;;;5038727;28;20425;-82
2021/04/02 04:19:26;;;;;;;6.17;4.80;;;5.90;97.30;;;;;;5038022;28;20513;-82
2021/04/02 04:21:52;;;;;;;5.90;4.47;;;6.00;97.30;;;;;;5039653;28;21256;-82
2021/04/02 04:24:20;;;;;;;8.00;4.63;;;6.00;97.30;;;;;;5039105;28;20434;-82
2021/04/02 04:26:49;;;;;;;6.60;4.10;;;6.00;97.30;;;;;;5049675;28;20426;-81
2021/04/02 04:29:19;;;;;;;6.77;4.33;;;6.00;97.30;;;;;;5039905;28;20446;-81
2021/04/02 04:31:46;;;;;;;6.87;4.40;;;6.00;97.30;;;;;;5058049;28;20866;-82
2021/04/02 04:34:14;;;;;;;6.60;4.73;;;6.00;97.30;;;;;;5039915;28;20461;-83
2021/04/02 04:36:42;;;;;;;6.87;4.80;;;6.00;97.30;;;;;;5038912;28;20453;-82
2021/04/02 04:39:08;;;;;;;6.23;4.87;;;6.00;97.30;;;;;;5039384;28;20926;-82
2021/04/02 04:41:35;;;;;;;12.50;5.30;;;5.90;97.30;;;;;;5040118;28;20472;-82
2021/04/02 04:44:05;;;;;;;7.67;5.33;;;6.00;97.30;;;;;;5039788;28;20423;-82
2021/04/02 04:46:31;;;;;;;7.70;5.20;;;5.90;97.30;;;;;;5039436;28;20486;-82
2021/04/02 04:48:57;;;;;;;7.63;4.13;;;5.90;97.30;;;;;;5039585;28;20410;-83
2021/04/02 04:51:28;;;;;;;6.60;4.80;;;5.90;97.30;;;;;;5057566;28;20441;-82
2021/04/02 04:53:56;;;;;;;6.80;4.93;;;6.00;97.30;;;;;;5039765;28;20195;-82
2021/04/02 04:56:26;;;;;;;7.90;4.67;;;6.00;97.30;;;;;;5039136;28;20449;-82
2021/04/02 04:58:55;;;;;;;6.77;4.10;;;6.00;97.30;;;;;;5039542;28;20948;-82
2021/04/02 05:01:23;;;;;;;6.97;4.30;;;5.90;97.30;;;;;;5037311;28;20438;-82
2021/04/02 05:03:55;;;;;;;5.53;4.00;;;5.90;97.30;;;;;;5039116;28;20802;-82
2021/04/02 05:06:24;;;;;;;5.63;3.63;;;5.90;97.30;;;;;;5039596;28;20427;-83
2021/04/02 05:08:51;;;;;;;5.17;3.97;;;6.00;97.30;;;;;;5038881;28;20429;-83
2021/04/02 05:11:23;;;;;;;5.57;4.07;;;6.00;97.30;;;;;;5038513;28;20479;-83
2021/04/02 05:13:51;;;;;;;6.67;4.70;;;6.00;97.30;;;;;;5038557;28;20466;-83
2021/04/02 05:16:20;;;;;;;5.63;3.80;;;6.00;97.30;;;;;;5056334;28;20406;-83
2021/04/02 05:18:48;;;;;;;7.30;4.60;;;6.00;97.30;;;;;;5056630;28;20415;-83
2021/04/02 05:21:14;;;;;;;7.23;4.03;;;6.10;97.30;;;;;;5036511;28;20403;-83
2021/04/02 05:23:40;;;;;;;5.40;4.20;;;6.10;97.30;;;;;;5017624;28;20485;-83
2021/04/02 05:26:08;;;;;;;4.40;3.67;;;6.10;97.30;;;;;;5024067;28;20829;-83
2021/04/02 05:28:37;;;;;;;5.77;4.00;;;6.10;97.30;;;;;;5037605;28;20186;-83
2021/04/02 05:31:04;;;;;;;4.63;3.83;;;6.10;97.30;;;;;;5036850;28;20414;-83
2021/04/02 05:33:32;;;;;;;6.33;3.97;;;6.10;97.30;;;;;;5053222;28;20878;-82
2021/04/02 05:35:58;;;;;;;7.90;3.43;;;6.10;97.30;;;;;;5022426;28;20939;-83
2021/04/02 05:38:23;;;;;;;4.37;3.23;;;6.10;97.30;;;;;;5013967;28;20446;-83
2021/04/02 05:40:49;;;;;;;6.80;3.83;;;6.10;97.30;;;;;;5032099;28;20449;-83
2021/04/02 05:43:18;;;;;;;3.13;2.87;;;6.00;97.30;;;;;;5032912;28;20219;-83
2021/04/02 05:45:45;;;;;;;5.30;3.60;;;6.00;97.30;;;;;;5016632;28;20824;-84
2021/04/02 05:48:11;;;;;;;4.27;3.30;;;6.00;97.30;;;;;;5049974;28;20430;-83
2021/04/02 05:50:38;;;;;;;5.47;3.13;;;6.00;97.30;;;;;;5052915;28;20406;-83
2021/04/02 05:53:09;;;;;;;4.70;2.73;;;6.00;97.30;;;;;;5044746;28;20470;-83
2021/04/02 05:55:44;;;;;;;4.43;3.30;;;6.00;97.30;;;;;;5034421;28;20418;-83
2021/04/02 05:58:12;;;;;;;5.00;3.43;;;6.00;97.30;;;;;;5035819;28;20938;-83
2021/04/02 06:00:40;;;;;;;6.77;3.10;;;6.00;97.30;;;;;;5055343;28;20929;-82
2021/04/02 06:03:07;;;;;;;5.43;3.20;;;6.00;97.30;;;;;;5037780;28;20502;-83
2021/04/02 06:05:33;;;;;;;5.17;3.43;;;5.90;97.30;;;;;;5037187;28;20436;-83
2021/04/02 06:07:59;;;;;;;3.97;2.90;;;5.90;97.30;;;;;;5034694;28;20498;-83
2021/04/02 06:10:27;;;;;;;9.70;3.60;;;5.90;97.30;;;;;;5033072;28;20434;-84
2021/04/02 06:12:55;;;;;;;6.53;4.03;;;5.90;97.30;;;;;;5033423;28;20486;-82
2021/04/02 06:15:22;;;;;;;10.73;3.57;;;5.80;97.30;;;;;;5052040;28;20926;-83
2021/04/02 06:18:05;;;;;;;8.53;3.70;;;5.80;97.30;;;;;;5032561;28;20411;-84
2021/04/02 06:20:41;;;;;;;9.03;4.10;;;5.80;97.30;;;;;;5032004;28;20453;-84
2021/04/02 06:23:19;;;;;;;6.00;4.17;;;5.80;97.30;;;;;;5050839;28;20453;-83
2021/04/02 06:26:12;;;;;;;3.70;2.73;;;5.80;97.30;;;;;;5032867;28;21022;-85
2021/04/02 06:28:40;;;;;;;4.40;2.83;;;5.80;97.30;;;;;;5032755;28;20926;-85
2021/04/02 06:31:14;;;;;;;4.70;2.70;;;5.80;97.30;;;;;;5022153;28;20434;-85
2021/04/02 06:33:44;;;;;;;4.20;2.90;;;5.80;97.30;;;;;;5032885;28;20461;-85
2021/04/02 06:36:30;;;;;;;6.70;3.20;;;5.80;97.30;;;;;;5032863;28;20437;-84
2021/04/02 06:39:00;;;;;;;3.23;2.70;;;5.80;97.30;;;;;;5032720;28;20422;-85
2021/04/02 06:41:28;;;;;;;2.70;2.37;;;5.80;97.30;;;;;;5033602;28;20438;-85
2021/04/02 06:43:59;;;;;;;5.50;3.07;;;5.70;97.30;;;;;;5033484;28;20448;-83
2021/04/02 06:46:33;;;;;;;4.47;3.17;;;5.70;97.30;;;;;;5025449;28;20431;-83
2021/04/02 06:49:12;;;;;;;7.33;3.27;;;5.70;97.30;;;;;;5041301;28;20508;-83
2021/04/02 06:51:40;;;;;;;3.53;2.63;;;5.70;97.30;;;;;;5029430;28;20484;-83
2021/04/02 06:54:06;;;;;;;6.60;3.27;;;5.70;97.30;;;;;;5025666;28;20451;-83
2021/04/02 06:56:33;;;;;;;5.20;3.30;;;5.70;97.30;;;;;;5037783;28;20427;-83
2021/04/02 06:59:00;;;;;;;5.10;3.20;;;5.70;97.30;;;;;;5028214;28;20934;-83
2021/04/02 07:01:35;;;;;;;6.27;3.73;;;5.70;97.30;;;;;;5023758;28;20482;-83
2021/04/02 07:04:01;;;;;;;3.80;3.37;;;5.70;97.30;;;;;;5022502;28;21024;-84
2021/04/02 07:06:27;;;;;;;5.80;3.20;;;5.60;97.30;;;;;;5040770;28;20398;-83
2021/04/02 07:08:54;;;;;;;4.60;2.97;;;5.60;97.30;;;;;;5025319;28;20501;-84
2021/04/02 07:11:21;;;;;;;6.70;4.20;;;5.60;97.30;;;;;;5024006;28;20824;-85
2021/04/02 07:13:51;;;;;;;6.80;4.30;;;5.50;97.30;;;;;;5042097;28;20985;-84
2021/04/02 07:16:21;;;;;;;8.43;4.70;;;5.50;97.30;;;;;;5026135;28;20440;-84
2021/04/02 07:18:48;;;;;;;7.80;4.70;;;5.40;97.30;;;;;;5026381;28;20410;-84
2021/04/02 07:21:16;;;;;;;9.60;5.10;;;5.40;97.30;;;;;;5024291;28;20422;-83
2021/04/02 07:23:42;;;;;;;7.27;4.47;;;5.40;97.30;;;;;;5028927;28;20413;-83
2021/04/02 07:26:09;;;;;;;5.87;3.70;;;5.40;97.30;;;;;;5023223;28;20422;-84
2021/04/02 07:28:44;;;;;;;7.00;4.00;;;5.40;97.30;;;;;;5024967;28;20415;-84
2021/04/02 07:31:14;;;;;;;5.60;3.90;;;5.40;97.30;;;;;;5024843;28;20454;-83
2021/04/02 07:33:43;;;;;;;7.70;4.10;;;5.40;97.30;;;;;;5023186;28;20463;-84
2021/04/02 07:36:12;;;;;;;7.87;3.80;;;5.50;97.30;;;;;;5024079;28;20412;-83
2021/04/02 07:38:39;;;;;;;7.63;4.20;;;5.40;97.30;;;;;;5025822;28;20442;-83
2021/04/02 07:41:16;;;;;;;6.50;4.03;;;5.40;97.30;;;;;;5024279;28;20938;-84
2021/04/02 07:43:55;;;;;;;8.93;4.87;;;5.50;97.30;;;;;;5031546;28;20440;-82
2021/04/02 07:46:24;;;;;;;11.00;5.43;;;5.60;97.30;;;;;;5024747;28;20484;-83
2021/04/02 07:49:11;;;;;;;14.57;5.23;;;5.70;97.30;;;;;;5049445;28;20471;-83
2021/04/02 07:51:48;;;;;;;7.47;5.27;;;5.70;97.30;;;;;;5028348;28;20435;-85
2021/04/02 07:54:21;;;;;;;10.23;5.80;;;5.70;97.30;;;;;;5028765;28;20531;-83
2021/04/02 07:56:50;;;;;;;7.87;5.13;;;5.80;97.30;;;;;;5029976;28;20423;-83
2021/04/02 07:59:16;;;;;;;6.73;4.57;;;5.80;97.30;;;;;;5030378;28;20422;-85
2021/04/02 08:01:58;;;;;;;4.17;3.47;;;5.90;97.30;;;;;;5027255;28;20508;-84
2021/04/02 08:04:43;;;;;;;6.97;4.07;;;5.90;97.30;;;;;;5029294;28;20850;-85
2021/04/02 08:07:41;;;;;;;5.10;3.40;;;6.00;97.30;;;;;;5024610;28;20481;-85
2021/04/02 08:10:13;;;;;;;5.47;3.70;;;6.00;97.30;;;;;;5019434;28;20427;-84
2021/04/02 08:12:39;;;;;;;4.37;3.70;;;6.10;97.30;;;;;;5040853;28;20454;-83
2021/04/02 08:15:16;;;;;;;6.37;3.70;;;6.10;97.30;;;;;;5027150;28;20416;-84
2021/04/02 08:17:44;;;;;;;5.10;3.33;;;6.00;97.30;;;;;;4998482;28;20412;-84
2021/04/02 08:20:21;;;;;;;5.20;3.60;;;5.90;97.30;;;;;;5015576;28;20415;-84
2021/04/02 08:22:51;;;;;;;6.83;3.70;;;5.90;97.30;;;;;;5070618;23;20497;-79
2021/04/02 08:25:19;;;;;;;6.20;3.90;;;6.00;97.30;;;;;;5048228;28;20414;-78
2021/04/02 08:27:47;;;;;;;5.00;3.80;;;6.00;97.30;;;;;;5051147;28;20414;-79
2021/04/02 08:30:14;;;;;;;5.57;3.63;;;5.90;97.30;;;;;;5051384;28;20877;-79
2021/04/02 08:32:44;;;;;;;8.97;4.23;;;6.00;97.30;;;;;;5031592;28;20403;-78
2021/04/02 08:35:13;;;;;;;4.30;3.67;;;6.00;97.30;;;;;;5031647;28;20427;-77
2021/04/02 08:37:54;;;;;;;5.10;3.87;;;6.10;97.30;;;;;;5026736;28;20412;-76
2021/04/02 08:40:20;;;;;;;5.03;3.70;;;6.10;97.30;;;;;;5026170;28;20794;-77
2021/04/02 08:42:46;;;;;;;6.53;4.27;;;6.10;97.30;;;;;;5030937;28;20423;-77
2021/04/02 08:45:12;;;;;;;5.90;4.07;;;6.10;97.30;;;;;;5032443;28;20177;-79
2021/04/02 08:47:39;;;;;;;9.70;4.43;;;6.00;97.30;;;;;;5024293;28;20191;-78
2021/04/02 08:50:07;;;;;;;6.27;3.90;;;6.00;97.30;;;;;;5030637;28;20427;-77
2021/04/02 08:52:33;;;;;;;7.07;4.67;;;5.90;97.30;;;;;;5030138;28;20450;-77
2021/04/02 08:55:06;;;;;;;8.33;4.53;;;5.90;97.30;;;;;;5030423;28;20431;-77
2021/04/02 08:57:33;;;;;;;8.27;4.60;;;5.90;97.30;;;;;;5030648;28;20955;-79
2021/04/02 09:00:00;;;;;;;6.47;4.10;;;5.90;97.30;;;;;;5031222;28;20621;-79
2021/04/02 09:02:29;;;;;;;5.90;4.50;;;5.90;97.30;;;;;;5031571;28;20517;-78
2021/04/02 09:04:56;;;;;;;7.20;4.50;;;5.90;97.30;;;;;;5031377;28;20502;-76
2021/04/02 09:07:22;;;;;;;6.10;4.47;;;5.90;97.30;;;;;;5027958;28;20431;-76
2021/04/02 09:09:51;;;;;;;9.73;4.40;;;5.90;97.30;;;;;;5029144;28;20520;-77
2021/04/02 09:12:19;;;;;;;8.43;4.40;;;5.90;97.30;;;;;;5015727;28;20432;-78
2021/04/02 09:14:47;;;;;;;6.50;4.83;;;5.80;97.30;;;;;;5024330;28;20455;-77
2021/04/02 09:17:15;;;;;;;10.63;4.23;;;5.80;97.30;;;;;;5031338;28;20424;-77
2021/04/02 09:19:42;;;;;;;10.23;5.10;;;5.70;97.30;;;;;;5030477;28;20423;-77
2021/04/02 09:22:09;;;;;;;7.40;4.73;;;5.70;97.30;;;;;;5026708;28;20459;-77
2021/04/02 09:24:39;;;;;;;7.67;5.00;;;5.60;97.30;;;;;;5045563;28;20434;-77
2021/04/02 09:27:17;;;;;;;8.97;4.73;;;5.60;97.30;;;;;;5034099;28;20956;-76
2021/04/02 09:29:56;;;;;;;6.80;4.57;;;5.70;97.30;;;;;;5033976;28;20472;-76
2021/04/02 09:32:32;;;;;;;10.40;5.40;;;5.70;97.30;;;;;;5033226;28;20445;-76
2021/04/02 09:35:05;;;;;;;7.47;4.93;;;5.80;97.30;;;;;;5033684;28;20418;-76
2021/04/02 09:37:32;;;;;;;6.90;4.90;;;5.80;97.30;;;;;;5033560;28;20465;-76
2021/04/02 09:40:08;;;;;;;8.10;5.10;;;5.70;97.30;;;;;;5033488;28;20947;-77
2021/04/02 09:42:36;;;;;;;8.33;4.70;;;5.80;97.30;;;;;;5034726;28;20445;-77
2021/04/02 09:45:10;;;;;;;8.17;5.10;;;5.80;97.30;;;;;;5034110;28;20480;-77
2021/04/02 09:47:46;;;;;;;7.43;4.73;;;5.90;97.30;;;;;;5025626;28;20432;-78
2021/04/02 09:50:12;;;;;;;6.40;4.30;;;5.90;97.30;;;;;;5036566;28;20442;-77
2021/04/02 09:52:39;;;;;;;9.10;5.03;;;6.00;97.30;;;;;;5023577;28;20421;-77
2021/04/02 09:55:07;;;;;;;8.13;4.90;;;6.10;97.30;;;;;;5033383;28;20422;-78
2021/04/02 09:57:33;;;;;;;4.60;4.00;;;6.30;97.30;;;;;;5017274;28;20916;-77
2021/04/02 10:00:00;;;;;;;8.17;4.90;;;6.40;97.30;;;;;;5033661;28;20467;-77
2021/04/02 10:02:26;;;;;;;6.70;4.20;;;6.40;97.30;;;;;;5033946;28;20492;-78
2021/04/02 10:04:53;;;;;;;8.10;4.90;;;6.30;97.30;;;;;;5030693;28;20422;-78
2021/04/02 10:07:19;;;;;;;7.20;4.53;;;6.20;97.30;;;;;;5036699;28;20190;-75
2021/04/02 10:09:45;;;;;;;8.70;4.20;;;6.30;97.30;;;;;;5032416;28;20415;-76
2021/04/02 10:12:11;;;;;;;6.73;4.27;;;6.40;97.30;;;;;;5033034;28;20440;-75
2021/04/02 10:14:36;;;;;;;6.23;4.07;;;6.40;97.30;;;;;;5032468;28;20214;-75
2021/04/02 10:17:03;;;;;;;6.00;4.13;;;6.50;97.30;;;;;;5033006;28;20187;-75
2021/04/02 10:19:32;;;;;;;5.80;4.37;;;6.60;97.30;;;;;;5014733;28;20190;-75
2021/04/02 10:21:57;;;;;;;6.33;4.70;;;6.70;97.30;;;;;;5013955;28;20433;-76
2021/04/02 10:24:23;;;;;;;8.97;4.30;;;6.80;97.30;;;;;;5013180;28;20427;-75
2021/04/02 10:26:58;;;;;;;6.40;4.60;;;6.80;97.30;;;;;;5013648;28;20259;-76
2021/04/02 10:29:25;;;;;;;5.00;3.97;;;6.80;97.30;;;;;;5013140;28;20315;-75
2021/04/02 10:31:50;;;;;;;5.40;3.97;;;6.80;97.30;;;;;;5013312;28;20513;-75
2021/04/02 10:34:17;;;;;;;6.30;4.80;;;6.80;97.30;;;;;;5012714;28;20459;-74
2021/04/02 10:36:43;;;;;;;7.10;3.73;;;7.00;97.30;;;;;;5031416;28;20165;-76
2021/04/02 10:39:09;;;;;;;19.50;10.40;;;7.20;97.30;;;;;;5030996;28;20494;-76
2021/04/02 10:41:35;;;;;;;12.33;6.70;;;7.30;97.30;;;;;;5013440;28;20288;-75
2021/04/02 10:44:03;;;;;;;6.77;6.03;;;7.50;97.30;;;;;;5022312;28;20505;-77
2021/04/02 10:46:29;;;;;;;8.10;4.03;;;7.60;97.30;;;;;;5027548;28;20431;-75
2021/04/02 10:48:55;;;;;;;5.30;4.13;;;7.70;97.20;;;;;;5054984;28;20482;-75
2021/04/02 10:51:21;;;;;;;7.70;4.27;;;8.00;97.30;;;;;;5032706;28;20210;-76
2021/04/02 10:53:49;;;;;;;8.43;4.90;;;8.20;95.70;;;;;;5025074;28;20196;-76
2021/04/02 10:56:15;;;;;;;10.03;4.60;;;8.20;95.50;;;;;;5031727;28;20422;-76
2021/04/02 10:58:40;;;;;;;7.67;4.77;;;8.20;95.00;;;;;;5032773;28;20429;-76
2021/04/02 11:01:07;;;;;;;6.03;4.13;;;8.10;95.50;;;;;;5032801;28;20196;-76
2021/04/02 11:03:33;;;;;;;6.47;4.23;;;8.10;95.80;;;;;;5032841;28;20274;-76
2021/04/02 11:05:58;;;;;;;6.23;3.73;;;8.10;94.60;;;;;;5032114;28;20513;-76
2021/04/02 11:08:24;;;;;;;5.70;4.63;;;8.20;93.40;;;;;;5032661;28;20261;-76
2021/04/02 11:10:50;;;;;;;5.70;3.83;;;8.50;93.90;;;;;;5032969;28;20200;-76
2021/04/02 11:13:16;;;;;;;4.80;3.77;;;8.70;92.80;;;;;;5032444;28;20454;-76
2021/04/02 11:15:42;;;;;;;6.37;3.60;;;8.60;92.70;;;;;;5028049;28;20180;-76
2021/04/02 11:18:08;;;;;;;6.80;3.30;;;8.70;92.60;;;;;;5032833;28;20179;-76
2021/04/02 11:20:33;;;;;;;5.37;4.07;;;8.60;91.90;;;;;;5032285;28;20308;-75
2021/04/02 11:22:59;;;;;;;11.00;3.70;;;8.70;92.10;;;;;;5036568;28;20466;-76
2021/04/02 11:25:31;;;;;;;7.47;4.40;;;8.70;92.00;;;;;;5054579;28;20211;-76
2021/04/02 11:27:57;;;;;;;6.53;3.77;;;8.70;92.30;;;;;;5054382;28;20410;-76
2021/04/02 11:30:23;;;;;;;4.73;4.07;;;8.60;92.40;;;;;;5036219;28;20425;-76
2021/04/02 11:32:50;;;;;;;9.93;5.60;;;8.70;92.30;;;;;;5034170;28;20207;-75
2021/04/02 11:35:16;;;;;;;4.90;3.47;;;8.80;91.80;;;;;;5028566;28;20946;-76
2021/04/02 11:37:44;;;;;;;4.90;3.73;;;8.90;91.40;;;;;;5036434;28;21089;-78
2021/04/02 11:40:12;;;;;;;4.03;3.37;;;9.10;91.10;;;;;;5035977;28;20509;-78
2021/04/02 11:42:38;;;;;;;4.83;3.60;;;9.20;91.00;;;;;;5035932;28;20478;-78
2021/04/02 11:45:05;;;;;;;4.70;4.10;;;9.60;90.40;;;;;;5034859;28;20470;-78
2021/04/02 11:47:31;;;;;;;7.20;4.00;;;10.00;90.30;;;;;;5025568;28;20877;-78
2021/04/02 11:49:57;;;;;;;5.30;3.80;;;10.40;88.40;;;;;;5030011;28;20517;-78
2021/04/02 11:52:23;;;;;;;7.73;3.93;;;10.70;88.80;;;;;;5021234;28;20201;-78
2021/04/02 11:54:49;;;;;;;5.43;3.83;;;10.70;86.90;;;;;;5015590;28;20478;-78
2021/04/02 11:57:15;;;;;;;5.10;3.70;;;10.70;87.00;;;;;;5014905;28;20430;-78
2021/04/02 11:59:41;;;;;;;7.50;5.10;;;10.70;86.70;;;;;;5015469;28;20427;-76
2021/04/02 12:02:07;;;;;;;4.90;3.97;;;10.40;85.90;;;;;;5019149;28;20206;-77
2021/04/02 12:04:33;;;;;;;28.93;15.67;;;10.40;86.70;;;;;;5025616;28;20518;-77
2021/04/02 12:07:02;;;;;;;10.00;7.17;;;10.60;86.20;;;;;;5021661;28;20235;-77
2021/04/02 12:09:27;;;;;;;5.90;3.97;;;10.90;86.00;;;;;;5032907;28;20192;-77
2021/04/02 12:11:53;;;;;;;5.60;4.97;;;11.40;84.90;;;;;;5035164;28;20504;-77
2021/04/02 12:14:19;;;;;;;7.13;4.13;;;11.60;83.80;;;;;;5035749;28;20271;-78
2021/04/02 12:16:44;;;;;;;5.03;4.10;;;11.70;83.10;;;;;;5053709;28;20667;-77
2021/04/02 12:19:10;;;;;;;5.60;4.60;;;11.90;83.20;;;;;;5035772;28;20176;-76
2021/04/02 12:21:36;;;;;;;11.10;6.50;;;11.80;82.40;;;;;;5035045;28;20207;-76
2021/04/02 12:24:03;;;;;;;5.97;4.63;;;11.90;83.00;;;;;;5035276;28;21014;-77
2021/04/02 12:26:30;;;;;;;10.00;5.90;;;12.00;80.70;;;;;;5034910;28;20180;-77
2021/04/02 12:28:56;;;;;;;20.00;9.27;;;12.10;81.10;;;;;;5035299;28;20418;-77
2021/04/02 12:31:22;;;;;;;7.03;3.60;;;12.40;82.00;;;;;;5018638;28;20442;-77
2021/04/02 12:33:48;;;;;;;6.30;3.80;;;12.90;80.50;;;;;;5034165;28;20512;-78
2021/04/02 12:36:13;;;;;;;5.60;3.53;;;13.00;80.10;;;;;;5034943;28;20476;-77
2021/04/02 12:38:39;;;;;;;5.03;3.73;;;12.80;78.90;;;;;;5035080;28;20204;-78
2021/04/02 12:41:07;;;;;;;6.73;3.70;;;12.70;80.10;;;;;;5053208;28;20725;-78
2021/04/02 12:43:33;;;;;;;6.50;4.47;;;12.60;79.90;;;;;;5035335;28;20180;-78
2021/04/02 12:45:59;;;;;;;4.47;3.73;;;12.80;79.40;;;;;;5036851;28;20438;-77
2021/04/02 12:48:27;;;;;;;5.30;4.07;;;12.70;79.00;;;;;;5015651;28;20761;-78
2021/04/02 12:50:54;;;;;;;4.67;3.77;;;12.70;80.00;;;;;;5014656;28;20797;-78
2021/04/02 12:53:20;;;;;;;4.30;3.37;;;12.80;79.90;;;;;;5017774;28;20530;-78
2021/04/02 12:55:47;;;;;;;4.30;3.50;;;12.90;80.80;;;;;;5033757;28;20451;-78
2021/04/02 12:58:13;;;;;;;6.13;4.50;;;13.00;78.70;;;;;;5014962;28;20177;-78
2021/04/02 13:00:39;;;;;;;3.90;3.17;;;13.00;78.90;;;;;;5014170;28;20534;-78
2021/04/02 13:03:05;;;;;;;5.80;3.67;;;13.40;77.50;;;;;;5032534;28;20172;-78
2021/04/02 13:05:31;;;;;;;5.77;4.50;;;13.70;77.30;;;;;;5014462;28;20415;-78
2021/04/02 13:08:00;;;;;;;5.27;4.30;;;14.00;78.40;;;;;;5016000;28;20717;-78
2021/04/02 13:10:26;;;;;;;5.33;4.37;;;14.40;76.60;;;;;;5032966;28;20238;-78
2021/04/02 13:12:53;;;;;;;5.73;4.20;;;14.50;77.10;;;;;;5032444;28;20435;-78
2021/04/02 13:15:20;;;;;;;6.60;4.60;;;14.40;76.60;;;;;;5034614;28;20438;-77